createdAt,value
2023-05-10T00:02:56.518Z,100319.28
2023-05-10T00:07:50.235Z,100320.94
2023-05-10T00:12:43.011Z,100267.84
2023-05-10T00:17:35.937Z,100303.28
2023-05-10T00:22:28.961Z,100306.78
2023-05-10T00:27:22.513Z,100304.34
2023-05-10T00:32:16.146Z,100308.59
2023-05-10T00:37:08.757Z,100305.94
2023-05-10T00:42:01.761Z,100294.34
2023-05-10T00:46:55.367Z,100316.59
2023-05-10T00:51:48.996Z,100326.41
2023-05-10T00:56:42.456Z,100334.63
2023-05-10T01:01:35.213Z,100354.03
2023-05-10T01:06:28.358Z,100302.69
2023-05-10T01:11:22.579Z,100292.19
2023-05-10T01:16:15.998Z,100287.56
2023-05-10T01:21:33.124Z,100288.41
2023-05-10T01:26:53.484Z,100323.88
2023-05-10T01:32:19.683Z,100312.34
2023-05-10T01:37:23.102Z,100292.38
2023-05-10T01:42:21.612Z,100269.88
2023-05-10T01:47:36.965Z,100292.00
2023-05-10T01:52:43.165Z,100286.94
2023-05-10T01:57:38.882Z,100278.09
2023-05-10T02:02:36.417Z,100276.53
2023-05-10T02:07:31.702Z,100276.97
2023-05-10T02:12:25.727Z,100277.13
2023-05-10T02:17:18.295Z,100265.03
2023-05-10T02:22:11.656Z,100269.88
2023-05-10T02:27:06.725Z,100279.91
2023-05-10T02:32:01.964Z,100271.91
2023-05-10T02:36:57.722Z,100217.88
2023-05-10T02:41:51.555Z,100230.53
2023-05-10T02:46:45.353Z,100257.88
2023-05-10T02:51:44.001Z,100256.03
2023-05-10T02:56:42.221Z,100266.69
2023-05-10T03:01:35.484Z,100239.41
2023-05-10T03:06:30.160Z,100257.03
2023-05-10T03:11:51.133Z,100250.84
2023-05-10T03:17:05.722Z,100231.41
2023-05-10T03:22:05.186Z,100235.09
2023-05-10T03:27:04.358Z,100219.19
2023-05-10T03:31:57.431Z,100250.84
2023-05-10T03:36:50.507Z,100222.69
2023-05-10T03:41:43.769Z,100221.00
2023-05-10T03:46:36.990Z,100238.63
2023-05-10T03:51:29.742Z,100246.63
2023-05-10T03:56:22.869Z,100198.03
2023-05-10T04:01:17.395Z,100241.28
2023-05-10T04:06:13.190Z,100255.59
2023-05-10T04:11:09.312Z,100234.28
2023-05-10T04:16:03.296Z,100236.47
2023-05-10T04:20:56.364Z,100237.06
2023-05-10T04:25:49.273Z,100232.56
2023-05-10T04:30:42.908Z,100228.22
2023-05-10T04:35:37.446Z,100224.84
2023-05-10T04:40:31.214Z,100203.84
2023-05-10T04:45:24.708Z,100241.69
2023-05-10T04:50:19.170Z,100191.41
2023-05-10T04:55:12.832Z,100231.13
2023-05-10T05:00:07.766Z,100240.97
2023-05-10T05:05:01.014Z,100210.13
2023-05-10T05:09:53.973Z,100220.41
2023-05-10T05:14:51.373Z,100227.25
2023-05-10T05:19:44.873Z,100230.38
2023-05-10T05:24:57.732Z,100217.50
2023-05-10T05:29:50.237Z,100242.00
2023-05-10T05:34:46.811Z,100237.66
2023-05-10T05:39:39.898Z,100231.34
2023-05-10T05:44:33.204Z,100208.66
2023-05-10T05:49:26.730Z,100212.28
2023-05-10T05:54:21.514Z,100233.06
2023-05-10T05:59:14.788Z,100241.03
2023-05-10T06:04:07.621Z,100239.47
2023-05-10T06:09:00.862Z,100221.00
2023-05-10T06:13:54.811Z,100225.09
2023-05-10T06:18:48.299Z,100239.03
2023-05-10T06:23:42.301Z,100243.47
2023-05-10T06:28:35.424Z,100252.34
2023-05-10T06:33:29.061Z,100244.97
2023-05-10T06:38:22.153Z,100253.44
2023-05-10T06:43:14.896Z,100228.06
2023-05-10T06:48:08.289Z,100269.69
2023-05-10T06:53:03.262Z,100231.13
2023-05-10T06:57:56.826Z,100254.19
2023-05-10T07:02:50.082Z,100254.19
2023-05-10T07:07:43.800Z,100258.69
2023-05-10T07:12:36.392Z,100237.78
2023-05-10T07:17:29.972Z,100244.56
2023-05-10T07:22:23.503Z,100253.53
2023-05-10T07:27:16.584Z,100264.38
2023-05-10T07:32:09.695Z,100251.09
2023-05-10T07:37:02.620Z,100269.72
2023-05-10T07:41:56.284Z,100276.03
2023-05-10T07:46:50.225Z,100259.47
2023-05-10T07:51:43.944Z,100258.66
2023-05-10T07:56:36.993Z,100286.81
2023-05-10T08:01:36.427Z,100294.91
2023-05-10T08:06:31.434Z,100262.63
2023-05-10T08:11:24.721Z,100267.69
2023-05-10T08:16:19.325Z,100310.19
2023-05-10T08:21:12.936Z,100312.13
2023-05-10T08:26:06.163Z,100318.44
2023-05-10T08:30:59.342Z,100306.06
2023-05-10T08:35:51.947Z,100319.53
2023-05-10T08:40:49.723Z,100308.97
2023-05-10T08:45:48.797Z,100304.16
2023-05-10T08:50:44.544Z,100314.56
2023-05-10T08:55:39.994Z,100300.53
2023-05-10T09:00:32.921Z,100362.38
2023-05-10T09:05:26.663Z,100320.28
2023-05-10T09:10:20.456Z,100363.47
2023-05-10T09:15:20.482Z,100376.88
2023-05-10T09:20:13.276Z,100350.63
2023-05-10T09:25:16.687Z,100392.16
2023-05-10T09:30:11.539Z,100392.16
2023-05-10T09:35:18.682Z,100367.69
2023-05-10T09:40:27.582Z,100409.09
2023-05-10T09:45:21.318Z,100374.94
2023-05-10T09:50:14.621Z,100414.66
2023-05-10T09:55:08.389Z,100389.88
2023-05-10T10:00:02.363Z,100389.13
2023-05-10T10:05:08.326Z,100404.59
2023-05-10T10:10:01.572Z,100416.00
2023-05-10T10:14:54.700Z,100412.38
2023-05-10T10:19:49.205Z,100393.94
2023-05-10T10:24:42.774Z,100421.56
2023-05-10T10:29:42.727Z,100421.56
2023-05-10T10:34:36.816Z,100395.28
2023-05-10T10:39:29.496Z,100397.09
2023-05-10T10:44:27.875Z,100415.63
2023-05-10T10:49:21.817Z,100412.22
2023-05-10T10:54:14.651Z,100402.44
2023-05-10T10:59:07.429Z,100392.97
2023-05-10T11:04:00.497Z,100420.34
2023-05-10T11:08:54.167Z,100411.88
2023-05-10T11:13:51.343Z,100402.78
2023-05-10T11:19:03.255Z,100427.88
2023-05-10T11:24:00.738Z,100417.22
2023-05-10T11:28:58.159Z,100426.75
2023-05-10T11:33:53.088Z,100406.19
2023-05-10T11:38:47.789Z,100375.56
2023-05-10T11:43:42.515Z,100412.72
2023-05-10T11:48:36.523Z,100387.31
2023-05-10T11:53:33.663Z,100389.84
2023-05-10T11:58:27.102Z,100389.84
2023-05-10T12:03:21.285Z,100384.66
2023-05-10T12:08:15.738Z,100417.31
2023-05-10T12:13:16.763Z,100397.47
2023-05-10T12:18:15.846Z,100375.19
2023-05-10T12:23:11.690Z,100367.56
2023-05-10T12:28:09.847Z,100396.88
2023-05-10T12:33:31.709Z,100396.13
2023-05-10T12:38:31.376Z,100398.78
2023-05-10T12:43:25.168Z,100352.56
2023-05-10T12:48:18.095Z,100381.63
2023-05-10T12:53:11.345Z,100366.84
2023-05-10T12:58:04.898Z,100390.81
2023-05-10T13:02:57.945Z,100382.97
2023-05-10T13:07:51.126Z,100390.06
2023-05-10T13:12:44.132Z,100370.69
2023-05-10T13:17:37.642Z,100376.28
2023-05-10T13:22:40.274Z,100350.03
2023-05-10T13:27:33.196Z,100352.31
2023-05-10T13:32:26.608Z,100365.66
2023-05-10T13:37:19.937Z,100326.91
2023-05-10T13:42:13.466Z,100324.47
2023-05-10T13:47:07.779Z,100358.38
2023-05-10T13:52:08.157Z,100352.44
2023-05-10T13:57:01.588Z,100353.31
2023-05-10T14:01:54.654Z,100348.81
2023-05-10T14:06:48.414Z,100328.25
2023-05-10T14:11:44.613Z,100345.91
2023-05-10T14:16:38.215Z,100308.97
2023-05-10T14:21:32.209Z,100315.25
2023-05-10T14:26:25.621Z,100309.06
2023-05-10T14:31:20.923Z,100297.31
2023-05-10T14:36:16.254Z,100322.31
2023-05-10T14:41:11.725Z,100337.69
2023-05-10T14:46:05.441Z,100334.66
2023-05-10T14:50:58.726Z,100303.53
2023-05-10T14:55:53.243Z,100304.47
2023-05-10T15:00:47.323Z,100285.09
2023-05-10T15:05:40.967Z,100316.59
2023-05-10T15:10:34.563Z,100300.56
2023-05-10T15:15:28.203Z,100284.84
2023-05-10T15:20:20.305Z,100325.28
2023-05-10T15:25:16.233Z,100316.91
2023-05-10T15:30:13.526Z,100322.25
2023-05-10T15:35:06.718Z,100323.94
2023-05-10T15:40:05.174Z,100314.19
2023-05-10T15:44:57.740Z,100315.84
2023-05-10T15:49:50.526Z,100289.47
2023-05-10T15:54:44.024Z,100308.22
2023-05-10T15:59:37.055Z,100318.16
2023-05-10T16:04:31.073Z,100319.34
2023-05-10T16:09:24.947Z,100281.09
2023-05-10T16:14:18.245Z,100308.81
2023-05-10T16:19:11.613Z,100315.13
2023-05-10T16:24:05.967Z,100305.31
2023-05-10T16:28:59.416Z,100286.94
2023-05-10T16:33:54.314Z,100273.59
2023-05-10T16:38:47.122Z,100313.53
2023-05-10T16:43:40.899Z,100317.66
2023-05-10T16:48:34.927Z,100274.81
2023-05-10T16:53:29.519Z,100290.56
2023-05-10T16:58:22.523Z,100273.50
2023-05-10T17:03:20.036Z,100290.22
2023-05-10T17:08:13.557Z,100316.94
2023-05-10T17:13:09.333Z,100297.94
2023-05-10T17:18:02.535Z,100310.28
2023-05-10T17:22:55.627Z,100299.41
2023-05-10T17:27:48.602Z,100280.41
2023-05-10T17:32:41.769Z,100297.13
2023-05-10T17:37:35.775Z,100320.84
2023-05-10T17:42:28.805Z,100313.09
2023-05-10T17:47:22.250Z,100312.84
2023-05-10T17:52:15.848Z,100317.13
2023-05-10T17:57:08.409Z,100295.78
2023-05-10T18:02:02.647Z,100290.34
2023-05-10T18:07:01.911Z,100276.19
2023-05-10T18:11:54.580Z,100289.38
2023-05-10T18:16:46.696Z,100316.63
2023-05-10T18:21:40.206Z,100314.69
2023-05-10T18:26:33.643Z,100319.88
2023-05-10T18:31:27.052Z,100322.56
2023-05-10T18:36:20.125Z,100305.59
2023-05-10T18:41:15.027Z,100308.28
2023-05-10T18:46:08.393Z,100290.47
2023-05-10T18:51:01.865Z,100309.00
2023-05-10T18:55:58.639Z,100328.84
2023-05-10T19:00:53.963Z,100308.06
2023-05-10T19:05:49.449Z,100294.25
2023-05-10T19:10:43.049Z,100329.59
2023-05-10T19:15:37.017Z,100313.22
2023-05-10T19:20:30.506Z,100341.41
2023-05-10T19:25:29.599Z,100356.91
2023-05-10T19:30:22.311Z,100358.38
2023-05-10T19:35:14.985Z,100326.31
2023-05-10T19:40:12.905Z,100301.84
2023-05-10T19:45:07.121Z,100314.19
2023-05-10T19:50:00.705Z,100321.13
2023-05-10T19:54:53.575Z,100344.22
2023-05-10T19:59:47.254Z,100367.31
2023-05-10T20:04:40.970Z,100360.41
2023-05-10T20:09:34.622Z,100339.38
2023-05-10T20:14:27.931Z,100356.19
2023-05-10T20:19:22.407Z,100334.13
2023-05-10T20:24:16.452Z,100356.66
2023-05-10T20:29:10.246Z,100330.00
2023-05-10T20:34:03.483Z,100327.69
2023-05-10T20:38:57.091Z,100354.09
2023-05-10T20:43:49.912Z,100330.00
2023-05-10T20:48:48.367Z,100308.31
2023-05-10T20:53:41.951Z,100344.31
2023-05-10T20:58:36.022Z,100348.78
2023-05-10T21:03:28.791Z,100347.22
2023-05-10T21:08:21.420Z,100316.47
2023-05-10T21:13:14.986Z,100345.50
2023-05-10T21:18:08.501Z,100313.81
2023-05-10T21:23:01.166Z,100334.38
2023-05-10T21:27:55.056Z,100348.28
2023-05-10T21:32:48.491Z,100330.75
2023-05-10T21:37:42.108Z,100318.63
2023-05-10T21:42:35.068Z,100300.00
2023-05-10T21:47:27.933Z,100324.56
2023-05-10T21:52:21.805Z,100301.69
2023-05-10T21:57:15.300Z,100298.28
2023-05-10T22:02:07.779Z,100331.94
2023-05-10T22:07:01.917Z,100301.91
2023-05-10T22:11:54.554Z,100307.22
2023-05-10T22:16:48.068Z,100300.22
2023-05-10T22:21:41.905Z,100310.16
2023-05-10T22:26:35.170Z,100295.00
2023-05-10T22:31:28.628Z,100291.63
2023-05-10T22:36:21.190Z,100334.22
2023-05-10T22:41:14.035Z,100308.44
2023-05-10T22:46:07.623Z,100324.66
2023-05-10T22:51:00.844Z,100325.84
2023-05-10T22:55:54.477Z,100302.88
2023-05-10T23:00:47.437Z,100343.50
2023-05-10T23:05:40.887Z,100329.50
2023-05-10T23:10:34.636Z,100328.63
2023-05-10T23:15:28.583Z,100332.16
2023-05-10T23:20:21.998Z,100319.09
2023-05-10T23:25:16.344Z,100325.38
2023-05-10T23:30:10.934Z,100320.88
2023-05-10T23:35:04.479Z,100316.56
2023-05-10T23:39:57.622Z,100320.19
2023-05-10T23:44:52.821Z,100288.69
2023-05-10T23:49:46.092Z,100297.78
2023-05-10T23:54:39.090Z,100304.56
2023-05-10T23:59:32.050Z,100269.25
